Time;durP1;ratioP1;P1;durP2;ratioP2;P2;SDS_P1;SDS_P2;PMS_P1;PMS_P2;Temp;Humidity;BMP_temperature;BMP_pressure;BME280_temperature;BME280_humidity;BME280_pressure;Samples;Min_cycle;Max_cycle;Signal;HPM_P1;HPM_P2
2024/01/22 00:00:25;;;;;;;1.55;1.30;;;20.80;29.10;;;;;;4945563;28;20488;-57
2024/01/22 00:02:52;;;;;;;4.43;1.52;;;20.80;29.10;;;;;;4943874;28;20059;-58
2024/01/22 00:05:21;;;;;;;2.42;1.63;;;20.80;29.00;;;;;;4947322;28;20057;-58
2024/01/22 00:07:48;;;;;;;3.17;1.50;;;20.90;29.10;;;;;;4948092;28;20066;-57
2024/01/22 00:10:15;;;;;;;1.70;1.20;;;21.00;29.10;;;;;;4945005;28;20062;-56
2024/01/22 00:12:43;;;;;;;1.33;1.10;;;21.00;29.10;;;;;;4945017;28;20051;-57
2024/01/22 00:15:10;;;;;;;2.13;1.40;;;21.10;29.20;;;;;;4944717;28;20054;-57
2024/01/22 00:17:37;;;;;;;2.25;1.40;;;21.10;29.20;;;;;;4947863;28;20051;-55
2024/01/22 00:20:07;;;;;;;3.10;1.50;;;21.20;29.20;;;;;;4948404;28;20059;-57
2024/01/22 00:22:35;;;;;;;1.02;0.88;;;21.20;29.50;;;;;;4949641;28;20047;-57
2024/01/22 00:25:03;;;;;;;1.63;1.13;;;21.30;29.10;;;;;;4950593;29;20055;-57
2024/01/22 00:27:30;;;;;;;1.65;1.10;;;21.30;29.10;;;;;;4946261;29;20077;-57
2024/01/22 00:29:58;;;;;;;1.73;0.93;;;21.30;29.10;;;;;;4948751;28;20067;-57
2024/01/22 00:32:25;;;;;;;2.33;1.00;;;21.40;29.10;;;;;;4949445;28;20047;-57
2024/01/22 00:34:52;;;;;;;2.78;1.40;;;21.40;29.00;;;;;;4947936;28;20055;-55
2024/01/22 00:37:19;;;;;;;1.63;1.10;;;21.40;29.00;;;;;;4950717;28;20063;-57
2024/01/22 00:39:48;;;;;;;2.15;1.10;;;21.40;29.00;;;;;;4953581;28;20058;-58
2024/01/22 00:42:15;;;;;;;3.60;1.40;;;21.40;28.90;;;;;;4952830;28;20054;-58
2024/01/22 00:44:44;;;;;;;2.33;1.08;;;21.50;28.90;;;;;;4948077;28;20062;-58
2024/01/22 00:47:11;;;;;;;2.58;1.17;;;21.50;28.90;;;;;;4947919;28;20051;-57
2024/01/22 00:49:38;;;;;;;3.80;1.40;;;21.50;28.90;;;;;;4949434;28;20419;-58
2024/01/22 00:52:06;;;;;;;2.92;1.55;;;21.50;28.90;;;;;;4951522;28;20047;-57
2024/01/22 00:54:33;;;;;;;2.95;1.38;;;21.50;29.00;;;;;;4948401;28;20062;-56
2024/01/22 00:57:02;;;;;;;2.40;1.23;;;21.50;28.90;;;;;;4947475;28;20138;-57
2024/01/22 00:59:29;;;;;;;1.95;1.00;;;21.40;28.90;;;;;;4950071;28;20058;-57
2024/01/22 01:01:56;;;;;;;1.85;1.10;;;21.40;28.90;;;;;;4949562;28;20063;-58
2024/01/22 01:04:23;;;;;;;3.33;1.38;;;21.40;28.90;;;;;;4949749;28;20055;-56
2024/01/22 01:06:51;;;;;;;2.65;1.20;;;21.40;29.00;;;;;;4948007;28;20515;-55
2024/01/22 01:09:18;;;;;;;1.85;1.10;;;21.30;29.00;;;;;;4949775;28;20062;-57
2024/01/22 01:11:45;;;;;;;2.65;1.30;;;21.30;29.00;;;;;;4949856;28;20447;-57
2024/01/22 01:14:14;;;;;;;3.25;1.30;;;21.30;29.00;;;;;;4945446;28;20066;-57
2024/01/22 01:16:41;;;;;;;1.85;1.13;;;21.20;29.00;;;;;;4943172;28;20055;-57
2024/01/22 01:19:08;;;;;;;1.58;1.00;;;21.20;29.00;;;;;;4943497;28;20070;-57
2024/01/22 01:21:38;;;;;;;2.40;1.13;;;21.20;29.00;;;;;;4949722;28;20058;-57
2024/01/22 01:24:06;;;;;;;3.78;1.40;;;21.20;29.10;;;;;;4947008;29;20058;-58
2024/01/22 01:26:33;;;;;;;2.58;1.17;;;21.10;29.10;;;;;;4947349;28;20066;-57
2024/01/22 01:29:00;;;;;;;2.50;1.02;;;21.10;29.20;;;;;;4948172;29;20055;-56
2024/01/22 01:31:29;;;;;;;2.58;1.00;;;21.10;29.20;;;;;;4946492;28;20082;-57
2024/01/22 01:33:56;;;;;;;2.17;1.00;;;21.10;29.20;;;;;;4946160;29;20512;-56
2024/01/22 01:36:23;;;;;;;1.98;1.20;;;21.10;29.20;;;;;;4945667;28;20059;-57
2024/01/22 01:38:50;;;;;;;1.75;0.85;;;21.10;29.20;;;;;;4945022;28;20062;-58
2024/01/22 01:41:18;;;;;;;4.10;1.10;;;21.10;29.20;;;;;;4946367;28;20055;-57
2024/01/22 01:43:45;;;;;;;1.75;1.00;;;21.20;29.20;;;;;;4949450;28;20066;-57
2024/01/22 01:46:12;;;;;;;5.65;1.15;;;21.20;29.20;;;;;;4946457;28;20058;-57
2024/01/22 01:48:41;;;;;;;3.10;1.00;;;21.30;29.20;;;;;;4944986;29;20074;-57
2024/01/22 01:51:09;;;;;;;3.10;1.10;;;21.30;29.20;;;;;;4946745;28;20073;-57
2024/01/22 01:53:37;;;;;;;2.00;0.90;;;21.40;29.20;;;;;;4943825;28;20059;-56
2024/01/22 01:56:05;;;;;;;3.53;0.98;;;21.40;29.20;;;;;;4947315;28;20055;-57
2024/01/22 01:58:34;;;;;;;1.67;0.88;;;21.40;29.10;;;;;;4947036;28;20051;-55
2024/01/22 02:01:02;;;;;;;2.22;0.90;;;21.40;29.10;;;;;;4945943;29;20058;-57
2024/01/22 02:03:29;;;;;;;1.90;0.80;;;21.40;29.10;;;;;;4945689;28;20063;-56
2024/01/22 02:05:58;;;;;;;1.73;0.90;;;21.40;29.10;;;;;;4948278;28;20055;-56
2024/01/22 02:08:25;;;;;;;3.20;1.20;;;21.40;29.10;;;;;;4944289;28;20051;-57
2024/01/22 02:10:52;;;;;;;1.35;0.90;;;21.40;29.10;;;;;;4948826;28;20055;-57
2024/01/22 02:13:19;;;;;;;2.42;0.73;;;21.40;29.10;;;;;;4947214;28;20059;-56
2024/01/22 02:16:06;;;;;;;4.18;0.85;;;21.40;29.10;;;;;;4944626;28;20047;-56
2024/01/22 02:18:33;;;;;;;0.90;0.65;;;21.40;29.20;;;;;;4945188;28;20063;-56
2024/01/22 02:21:01;;;;;;;2.20;0.98;;;21.40;29.10;;;;;;4947401;28;20071;-55
2024/01/22 02:23:30;;;;;;;1.52;0.90;;;21.40;29.10;;;;;;4946414;28;20055;-56
2024/01/22 02:25:57;;;;;;;1.40;0.88;;;21.30;29.10;;;;;;4945071;28;20047;-56
2024/01/22 02:28:24;;;;;;;1.42;0.70;;;21.30;29.20;;;;;;4947899;28;20051;-57
2024/01/22 02:30:51;;;;;;;1.75;0.88;;;21.20;29.20;;;;;;4946990;28;20085;-57
2024/01/22 02:33:18;;;;;;;2.85;0.70;;;21.20;29.20;;;;;;4945587;28;20059;-55
2024/01/22 02:35:46;;;;;;;1.75;0.90;;;21.20;29.20;;;;;;4945127;28;20046;-55
2024/01/22 02:38:13;;;;;;;1.38;0.85;;;21.20;29.20;;;;;;4944343;28;20047;-57
2024/01/22 02:40:41;;;;;;;0.95;0.70;;;21.20;29.20;;;;;;4945120;29;20052;-57
2024/01/22 02:43:09;;;;;;;1.23;0.70;;;21.10;29.30;;;;;;4945811;28;20051;-57
2024/01/22 02:45:36;;;;;;;2.35;0.75;;;21.10;29.30;;;;;;4944609;28;20047;-55
2024/01/22 02:48:03;;;;;;;1.42;0.65;;;21.10;29.30;;;;;;4946940;28;20047;-56
2024/01/22 02:50:30;;;;;;;1.65;0.70;;;21.10;29.40;;;;;;4945279;29;20432;-57
2024/01/22 02:52:58;;;;;;;1.65;0.73;;;21.20;29.40;;;;;;4947848;29;20051;-57
2024/01/22 02:55:25;;;;;;;1.05;0.63;;;21.20;29.40;;;;;;4945484;28;20058;-58
2024/01/22 02:57:53;;;;;;;0.75;0.45;;;21.20;29.40;;;;;;4946474;28;20047;-58
2024/01/22 03:00:21;;;;;;;0.90;0.80;;;21.30;29.40;;;;;;4941944;28;20070;-58
2024/01/22 03:02:48;;;;;;;1.77;0.82;;;21.30;29.40;;;;;;4945245;28;20055;-57
2024/01/22 03:05:16;;;;;;;1.75;0.70;;;21.30;29.40;;;;;;4945211;28;20090;-58
2024/01/22 03:07:44;;;;;;;0.80;0.50;;;21.40;29.80;;;;;;4947026;28;20051;-58
2024/01/22 03:10:11;;;;;;;2.25;0.50;;;21.40;29.40;;;;;;4945094;28;20373;-57
2024/01/22 03:12:38;;;;;;;1.73;0.88;;;21.40;29.40;;;;;;4947111;28;20051;-58
2024/01/22 03:15:08;;;;;;;1.42;0.65;;;21.40;29.40;;;;;;4943193;28;20055;-57
2024/01/22 03:17:36;;;;;;;1.25;0.50;;;21.50;29.40;;;;;;4944606;28;20051;-58
2024/01/22 03:20:03;;;;;;;0.90;0.50;;;21.50;29.30;;;;;;4947409;29;20047;-56
2024/01/22 03:22:30;;;;;;;1.67;0.63;;;21.60;29.30;;;;;;4946899;28;20059;-55
2024/01/22 03:24:57;;;;;;;12.93;0.93;;;21.60;29.30;;;;;;4945299;28;20625;-57
2024/01/22 03:27:25;;;;;;;1.63;0.65;;;21.60;29.40;;;;;;4943455;28;20052;-56
2024/01/22 03:29:52;;;;;;;0.93;0.60;;;21.70;29.80;;;;;;4950946;28;20054;-58
2024/01/22 03:32:20;;;;;;;1.98;0.80;;;21.70;29.40;;;;;;4945237;28;20070;-59
2024/01/22 03:34:47;;;;;;;3.25;0.70;;;21.70;29.30;;;;;;4947813;28;20059;-58
2024/01/22 03:37:15;;;;;;;1.40;0.90;;;21.70;29.30;;;;;;4945249;28;20047;-60
2024/01/22 03:39:42;;;;;;;8.77;0.85;;;21.70;29.30;;;;;;4942214;28;20122;-57
2024/01/22 03:42:11;;;;;;;9.63;0.70;;;21.80;29.30;;;;;;4947419;28;20063;-59
2024/01/22 03:44:38;;;;;;;4.80;0.90;;;21.80;29.30;;;;;;4947342;28;20059;-58
2024/01/22 03:47:06;;;;;;;1.90;0.55;;;21.80;29.40;;;;;;4952123;28;20242;-58
2024/01/22 03:49:35;;;;;;;2.33;0.70;;;21.80;29.40;;;;;;4946330;28;20058;-56
2024/01/22 03:52:02;;;;;;;3.40;0.75;;;21.80;29.40;;;;;;4948601;28;20062;-58
2024/01/22 03:54:30;;;;;;;2.13;0.70;;;21.70;29.40;;;;;;4954840;28;20062;-59
2024/01/22 03:56:57;;;;;;;2.70;0.55;;;21.70;29.40;;;;;;4947747;28;20055;-57
2024/01/22 03:59:24;;;;;;;2.83;0.60;;;21.70;29.40;;;;;;4953654;28;20060;-58
2024/01/22 04:01:55;;;;;;;1.23;0.80;;;21.70;29.50;;;;;;4958604;28;20055;-57
2024/01/22 04:04:22;;;;;;;0.95;0.63;;;21.70;29.50;;;;;;4947809;28;20058;-58
2024/01/22 04:06:50;;;;;;;2.83;0.47;;;21.60;29.50;;;;;;4960900;28;20058;-58
2024/01/22 04:09:18;;;;;;;4.55;0.50;;;21.60;29.50;;;;;;4954030;28;20046;-59
2024/01/22 04:11:45;;;;;;;1.00;0.60;;;21.50;29.50;;;;;;4951398;28;20054;-58
2024/01/22 04:14:13;;;;;;;0.77;0.45;;;21.50;29.50;;;;;;4950746;28;20408;-56
2024/01/22 04:16:40;;;;;;;0.70;0.55;;;21.50;29.50;;;;;;4950806;28;20062;-59
2024/01/22 04:19:07;;;;;;;0.68;0.40;;;21.40;29.50;;;;;;4952928;28;20495;-58
2024/01/22 04:21:34;;;;;;;1.02;0.50;;;21.40;29.60;;;;;;4946645;28;20055;-59
2024/01/22 04:24:03;;;;;;;1.38;0.60;;;21.40;29.60;;;;;;4947838;28;20055;-58
2024/01/22 04:26:30;;;;;;;0.40;0.35;;;21.30;29.70;;;;;;4950514;28;20499;-57
2024/01/22 04:28:58;;;;;;;0.57;0.45;;;21.30;29.70;;;;;;4949458;28;20059;-58
2024/01/22 04:31:25;;;;;;;0.70;0.55;;;21.30;29.70;;;;;;4947732;28;20070;-59
2024/01/22 04:33:52;;;;;;;0.40;0.40;;;21.30;29.80;;;;;;4947569;28;20054;-60
2024/01/22 04:36:19;;;;;;;0.68;0.35;;;21.20;29.80;;;;;;4951020;28;20411;-59
2024/01/22 04:38:46;;;;;;;0.68;0.50;;;21.20;29.90;;;;;;4951448;28;20063;-60
2024/01/22 04:41:15;;;;;;;0.77;0.40;;;21.20;29.90;;;;;;4948282;28;20062;-59
2024/01/22 04:43:42;;;;;;;0.95;0.45;;;21.20;29.90;;;;;;4947573;28;20047;-57
2024/01/22 04:46:10;;;;;;;0.55;0.40;;;21.20;29.90;;;;;;4947250;28;20058;-59
2024/01/22 04:48:37;;;;;;;0.55;0.40;;;21.20;29.90;;;;;;4950442;28;20279;-59
2024/01/22 04:51:05;;;;;;;1.02;0.60;;;21.20;29.90;;;;;;4950292;28;20062;-57
2024/01/22 04:53:32;;;;;;;1.02;0.30;;;21.30;29.90;;;;;;4949917;28;20059;-60
2024/01/22 04:56:02;;;;;;;1.75;0.40;;;21.30;29.90;;;;;;4947992;28;20551;-60
2024/01/22 04:58:30;;;;;;;3.47;0.60;;;21.30;29.90;;;;;;4949466;28;20054;-59
2024/01/22 05:00:57;;;;;;;2.50;0.60;;;21.40;29.90;;;;;;4947138;28;20205;-58
2024/01/22 05:03:24;;;;;;;0.82;0.47;;;21.40;29.90;;;;;;4948561;28;20062;-56
2024/01/22 05:05:52;;;;;;;2.95;0.40;;;21.50;30.00;;;;;;4945408;28;20416;-57
2024/01/22 05:08:19;;;;;;;4.82;0.50;;;21.50;30.00;;;;;;4950784;28;20455;-59
2024/01/22 05:10:46;;;;;;;1.20;0.40;;;21.60;30.00;;;;;;4944813;28;20074;-56
2024/01/22 05:13:13;;;;;;;3.00;0.50;;;21.60;29.90;;;;;;4945272;28;20051;-58
2024/01/22 05:15:42;;;;;;;9.50;0.93;;;21.70;29.90;;;;;;4947044;28;20055;-56
2024/01/22 05:18:10;;;;;;;2.83;0.70;;;21.70;29.90;;;;;;4943519;28;20099;-57
2024/01/22 05:20:37;;;;;;;1.63;0.90;;;21.80;30.00;;;;;;4946963;28;20058;-56
2024/01/22 05:23:04;;;;;;;0.93;0.57;;;21.80;30.00;;;;;;4947930;29;20051;-58
2024/01/22 05:25:32;;;;;;;2.75;0.60;;;21.80;29.90;;;;;;4948694;28;20051;-57
2024/01/22 05:27:59;;;;;;;1.58;0.73;;;21.90;29.90;;;;;;4943880;28;20058;-57
2024/01/22 05:30:26;;;;;;;1.75;0.73;;;21.90;29.90;;;;;;4947345;28;20055;-54
2024/01/22 05:32:55;;;;;;;1.27;0.47;;;21.90;29.90;;;;;;4945713;28;20059;-57
2024/01/22 05:35:22;;;;;;;1.55;0.75;;;21.90;29.80;;;;;;4947312;28;20058;-56
2024/01/22 05:37:50;;;;;;;1.38;0.65;;;21.90;29.80;;;;;;4946980;28;20488;-57
2024/01/22 05:40:17;;;;;;;1.15;0.50;;;22.00;29.80;;;;;;4944037;28;20047;-57
2024/01/22 05:42:44;;;;;;;0.82;0.70;;;22.10;29.90;;;;;;4943529;28;20058;-57
2024/01/22 05:45:12;;;;;;;5.25;1.67;;;22.00;29.80;;;;;;4943406;28;20056;-57
2024/01/22 05:47:39;;;;;;;6.45;3.28;;;22.10;29.70;;;;;;4944349;28;20063;-58
2024/01/22 05:50:09;;;;;;;4.03;2.50;;;22.10;29.70;;;;;;4943989;29;20059;-58
2024/01/22 05:52:36;;;;;;;9.63;2.67;;;22.10;29.70;;;;;;4947869;28;20412;-58
2024/01/22 05:55:04;;;;;;;4.03;2.22;;;22.10;29.70;;;;;;4948068;28;20500;-57
2024/01/22 05:57:31;;;;;;;5.90;3.13;;;22.10;29.70;;;;;;4946019;28;20043;-58
2024/01/22 05:59:58;;;;;;;2.70;1.90;;;22.10;29.70;;;;;;4948109;28;20062;-57
2024/01/22 06:02:26;;;;;;;3.70;2.05;;;22.00;29.70;;;;;;4942419;28;20534;-57
2024/01/22 06:04:53;;;;;;;4.15;2.45;;;22.00;29.70;;;;;;4945799;28;20059;-54
2024/01/22 06:07:21;;;;;;;4.05;2.00;;;22.00;29.80;;;;;;4944463;29;20062;-57
2024/01/22 06:09:49;;;;;;;4.78;1.60;;;22.00;29.70;;;;;;4954144;28;20059;-57
2024/01/22 06:12:16;;;;;;;40.95;23.95;;;21.90;29.70;;;;;;4947682;28;20399;-56
2024/01/22 06:14:43;;;;;;;11.35;7.18;;;21.90;29.80;;;;;;4945455;28;20047;-56
2024/01/22 06:17:10;;;;;;;4.65;3.13;;;21.90;29.80;;;;;;4947274;28;20058;-57
2024/01/22 06:19:37;;;;;;;3.45;2.50;;;21.90;29.80;;;;;;4947888;28;20063;-56
2024/01/22 06:22:05;;;;;;;9.88;2.63;;;21.80;29.70;;;;;;4947659;28;20054;-56
2024/01/22 06:24:35;;;;;;;5.35;2.90;;;21.80;29.80;;;;;;4948761;28;20488;-56
2024/01/22 06:27:03;;;;;;;4.85;2.67;;;21.70;29.80;;;;;;4947663;28;20047;-55
2024/01/22 06:29:30;;;;;;;5.15;2.88;;;21.70;29.80;;;;;;4951941;28;20079;-55
2024/01/22 06:31:58;;;;;;;6.88;2.70;;;21.60;29.80;;;;;;4948408;28;20507;-57
2024/01/22 06:34:25;;;;;;;3.70;2.40;;;21.60;29.90;;;;;;4944840;29;20066;-57
2024/01/22 06:36:52;;;;;;;7.13;2.60;;;21.60;29.90;;;;;;4945536;28;20047;-55
2024/01/22 06:39:20;;;;;;;3.97;2.20;;;21.60;29.90;;;;;;4947749;28;20347;-53
2024/01/22 06:41:48;;;;;;;5.38;2.38;;;21.50;29.90;;;;;;4943112;28;20396;-53
2024/01/22 06:44:16;;;;;;;3.70;2.30;;;21.60;30.00;;;;;;4946980;28;20059;-55
2024/01/22 06:46:43;;;;;;;4.18;2.00;;;21.60;30.00;;;;;;4946292;28;20078;-54
2024/01/22 06:49:10;;;;;;;4.95;2.50;;;21.60;29.90;;;;;;4944350;28;20051;-61
2024/01/22 06:51:37;;;;;;;3.85;2.47;;;21.60;30.00;;;;;;4941734;28;20447;-59
2024/01/22 06:54:05;;;;;;;4.30;2.17;;;21.60;30.00;;;;;;4945548;28;20393;-60
2024/01/22 06:56:32;;;;;;;4.35;1.80;;;21.70;30.00;;;;;;4945023;28;20059;-59
2024/01/22 06:59:00;;;;;;;2.60;1.58;;;21.70;30.00;;;;;;4947100;28;20059;-59
2024/01/22 07:01:28;;;;;;;3.00;1.35;;;21.80;30.00;;;;;;4944863;28;20412;-59
2024/01/22 07:03:55;;;;;;;4.43;1.23;;;21.80;30.00;;;;;;4946052;28;20051;-59
2024/01/22 07:06:22;;;;;;;9.85;1.60;;;21.80;30.00;;;;;;4942832;28;20108;-57
2024/01/22 07:08:50;;;;;;;4.38;1.40;;;21.80;30.00;;;;;;4946264;28;20066;-59
2024/01/22 07:11:22;;;;;;;3.60;1.95;;;21.90;30.00;;;;;;4946357;28;20052;-61
2024/01/22 07:13:49;;;;;;;4.07;2.25;;;21.90;30.00;;;;;;4944972;28;20197;-62
2024/01/22 07:16:18;;;;;;;4.15;1.70;;;21.90;30.00;;;;;;4945123;28;20055;-63
2024/01/22 07:18:45;;;;;;;5.30;1.70;;;21.90;30.10;;;;;;4943086;28;20059;-59
2024/01/22 07:21:13;;;;;;;2.92;1.10;;;21.90;30.10;;;;;;4950414;28;20054;-58
2024/01/22 07:23:41;;;;;;;2.63;1.40;;;21.90;30.10;;;;;;4946691;29;20079;-58
2024/01/22 07:26:09;;;;;;;2.78;0.88;;;21.80;30.10;;;;;;4947054;28;20063;-62
2024/01/22 07:28:38;;;;;;;1.77;1.10;;;21.80;30.10;;;;;;4947893;28;20055;-61
2024/01/22 07:31:07;;;;;;;7.30;1.10;;;21.80;30.10;;;;;;4950090;28;20058;-58
2024/01/22 07:33:41;;;;;;;1.90;1.00;;;21.80;30.20;;;;;;4945524;28;20066;-59
2024/01/22 07:36:13;;;;;;;1.67;0.80;;;21.80;30.20;;;;;;4946471;28;20128;-59
2024/01/22 07:38:40;;;;;;;1.80;1.00;;;21.80;30.20;;;;;;4947949;29;20055;-60
2024/01/22 07:41:08;;;;;;;2.10;1.05;;;21.70;30.20;;;;;;4949194;29;20051;-61
2024/01/22 07:43:36;;;;;;;1.50;0.98;;;21.70;30.20;;;;;;4948424;28;20488;-60
2024/01/22 07:46:05;;;;;;;0.93;0.60;;;21.60;30.20;;;;;;4948602;28;20058;-60
2024/01/22 07:48:34;;;;;;;3.13;0.90;;;21.60;30.80;;;;;;4945429;28;20428;-60
2024/01/22 07:51:08;;;;;;;0.70;0.57;;;21.60;30.30;;;;;;4946193;28;20059;-60
2024/01/22 07:53:36;;;;;;;;;;;21.50;30.30;;;;;;4943013;28;20522;-60
2024/01/22 07:56:03;;;;;;;0.73;0.50;;;21.60;30.20;;;;;;4947755;28;19930;-60
2024/01/22 07:58:31;;;;;;;1.48;0.60;;;21.50;30.20;;;;;;4944202;28;20058;-60
2024/01/22 08:00:58;;;;;;;2.40;0.50;;;21.40;30.80;;;;;;4947726;28;20047;-60
2024/01/22 08:03:26;;;;;;;0.47;0.40;;;21.40;30.40;;;;;;4944529;28;20055;-60
2024/01/22 08:05:53;;;;;;;1.23;0.50;;;21.40;30.40;;;;;;4945546;28;20055;-60
2024/01/22 08:08:21;;;;;;;1.65;0.85;;;21.40;30.50;;;;;;4948021;28;20059;-61
2024/01/22 08:10:48;;;;;;;1.35;0.55;;;21.40;30.50;;;;;;4950071;29;20069;-61
2024/01/22 08:13:16;;;;;;;2.20;0.60;;;21.40;30.50;;;;;;4948082;28;20055;-62
2024/01/22 08:15:43;;;;;;;0.65;0.60;;;21.50;30.50;;;;;;4947276;28;20063;-61
2024/01/22 08:18:11;;;;;;;1.27;0.50;;;21.50;30.40;;;;;;4945645;29;20412;-61
2024/01/22 08:20:38;;;;;;;1.27;0.57;;;21.50;30.40;;;;;;4950156;29;20062;-62
2024/01/22 08:23:05;;;;;;;0.90;0.30;;;21.60;30.50;;;;;;4948544;29;20409;-60
2024/01/22 08:25:34;;;;;;;0.30;0.30;;;21.70;30.50;;;;;;4948563;28;20404;-60
2024/01/22 08:28:02;;;;;;;0.57;0.40;;;21.70;30.50;;;;;;4945989;28;20047;-60
2024/01/22 08:30:30;;;;;;;0.52;0.28;;;21.80;30.40;;;;;;4948776;29;20056;-61
2024/01/22 08:32:58;;;;;;;0.80;0.30;;;21.80;30.40;;;;;;4948433;28;20209;-62
2024/01/22 08:35:25;;;;;;;1.25;0.47;;;21.90;30.40;;;;;;4947357;28;20059;-62
2024/01/22 08:37:53;;;;;;;0.30;0.20;;;21.90;30.40;;;;;;4944350;28;20058;-62
2024/01/22 08:40:22;;;;;;;0.45;0.30;;;22.00;30.30;;;;;;4944714;28;20078;-62
2024/01/22 08:42:52;;;;;;;0.65;0.50;;;22.00;30.30;;;;;;4945212;28;20055;-61
2024/01/22 08:45:21;;;;;;;0.60;0.45;;;22.00;30.20;;;;;;4940640;28;20062;-60
2024/01/22 08:47:50;;;;;;;1.17;0.30;;;22.00;30.20;;;;;;4948298;28;20424;-61
2024/01/22 08:50:19;;;;;;;0.35;0.35;;;22.10;30.20;;;;;;4946575;29;20062;-60
2024/01/22 08:52:46;;;;;;;0.43;0.40;;;22.10;30.30;;;;;;4943145;28;20051;-62
2024/01/22 08:55:14;;;;;;;0.80;0.30;;;22.10;30.20;;;;;;4947794;28;20062;-59
2024/01/22 08:57:42;;;;;;;0.40;0.20;;;22.10;30.20;;;;;;4942882;28;20051;-60
2024/01/22 09:00:14;;;;;;;0.70;0.40;;;22.10;30.20;;;;;;4949434;28;20502;-60
2024/01/22 09:02:42;;;;;;;2.40;0.40;;;22.00;30.20;;;;;;4928994;28;20051;-60
2024/01/22 09:05:10;;;;;;;3.65;0.40;;;22.00;30.20;;;;;;4948919;28;20063;-57
2024/01/22 09:07:38;;;;;;;4.65;0.30;;;22.00;30.10;;;;;;4948434;29;20055;-58
2024/01/22 09:10:07;;;;;;;4.28;0.35;;;22.00;30.10;;;;;;4949008;29;20476;-58
2024/01/22 09:12:35;;;;;;;18.20;4.88;;;22.00;30.10;;;;;;4947837;28;20052;-57
2024/01/22 09:15:03;;;;;;;7.72;2.10;;;22.00;30.20;;;;;;4945926;29;20073;-58
2024/01/22 09:17:32;;;;;;;2.35;1.20;;;22.00;30.40;;;;;;4945854;28;20070;-58
2024/01/22 09:20:00;;;;;;;9.40;1.77;;;21.90;30.20;;;;;;4947880;28;20466;-56
2024/01/22 09:22:28;;;;;;;7.93;1.45;;;21.90;30.20;;;;;;4946773;28;20055;-54
2024/01/22 09:24:56;;;;;;;5.05;1.73;;;21.90;30.70;;;;;;4949707;28;20505;-58
2024/01/22 09:27:23;;;;;;;11.25;1.70;;;21.80;30.20;;;;;;4947620;28;20055;-58
2024/01/22 09:29:49;;;;;;;7.25;1.80;;;21.80;30.20;;;;;;4947648;28;20058;-56
2024/01/22 09:32:16;;;;;;;8.75;1.48;;;21.80;30.20;;;;;;4945578;28;20047;-54
2024/01/22 09:34:45;;;;;;;3.70;1.23;;;21.80;30.20;;;;;;4947598;28;20059;-54
2024/01/22 09:37:12;;;;;;;4.50;1.10;;;21.80;30.30;;;;;;4948199;28;20141;-54
2024/01/22 09:39:40;;;;;;;5.82;0.93;;;21.80;30.30;;;;;;4958070;28;20266;-55
2024/01/22 09:42:07;;;;;;;3.45;1.17;;;21.80;30.30;;;;;;4957052;28;20386;-54
2024/01/22 09:44:35;;;;;;;7.00;1.27;;;21.80;30.30;;;;;;4951416;28;20062;-56
2024/01/22 09:47:03;;;;;;;7.07;1.38;;;21.70;30.20;;;;;;4950153;28;20078;-54
2024/01/22 09:49:30;;;;;;;7.47;1.10;;;21.70;30.60;;;;;;4951190;28;20078;-56
2024/01/22 09:51:59;;;;;;;4.72;0.98;;;21.70;30.80;;;;;;4947025;28;20051;-54
2024/01/22 09:54:30;;;;;;;5.72;1.20;;;21.70;30.80;;;;;;4946379;28;20059;-54
2024/01/22 09:56:59;;;;;;;7.95;0.85;;;21.80;31.10;;;;;;4947174;28;20484;-55
2024/01/22 09:59:29;;;;;;;2.50;0.93;;;21.80;31.20;;;;;;4945542;28;20074;-54
2024/01/22 10:01:56;;;;;;;3.08;0.90;;;21.90;31.30;;;;;;4946380;28;20412;-56
2024/01/22 10:04:25;;;;;;;1.35;0.57;;;21.90;31.40;;;;;;4947732;28;20423;-56
2024/01/22 10:06:53;;;;;;;1.48;0.50;;;21.90;31.50;;;;;;4943483;28;20051;-55
2024/01/22 10:09:22;;;;;;;0.73;0.40;;;21.90;31.50;;;;;;4947103;28;20055;-55
2024/01/22 10:11:49;;;;;;;2.15;0.60;;;22.00;31.60;;;;;;4952956;28;20047;-56
2024/01/22 10:14:17;;;;;;;0.73;0.30;;;22.00;31.50;;;;;;4947163;28;20051;-55
2024/01/22 10:16:44;;;;;;;1.67;0.60;;;22.00;31.50;;;;;;4944641;28;20055;-56
2024/01/22 10:19:12;;;;;;;2.10;0.40;;;22.00;31.40;;;;;;4946272;28;20074;-56
2024/01/22 10:21:39;;;;;;;6.47;0.47;;;22.10;31.20;;;;;;4947777;28;20069;-50
2024/01/22 10:24:08;;;;;;;2.83;0.52;;;22.10;31.00;;;;;;4947822;28;20059;-55
2024/01/22 10:26:38;;;;;;;7.15;0.80;;;22.20;30.90;;;;;;4945919;28;20070;-55
2024/01/22 10:29:28;;;;;;;2.00;0.45;;;22.20;30.80;;;;;;4953057;28;20055;-52
2024/01/22 10:31:57;;;;;;;7.32;0.70;;;22.30;30.70;;;;;;4946864;28;20055;-54
2024/01/22 10:34:27;;;;;;;0.93;0.25;;;22.30;30.60;;;;;;4948016;28;20062;-54
2024/01/22 10:37:06;;;;;;;1.20;0.50;;;22.30;30.50;;;;;;4947513;28;20051;-54
2024/01/22 10:39:34;;;;;;;1.77;0.43;;;22.30;30.40;;;;;;4942408;29;20058;-54
2024/01/22 10:42:09;;;;;;;2.70;0.60;;;22.30;30.40;;;;;;4947855;29;20066;-54
2024/01/22 10:44:37;;;;;;;1.25;0.40;;;22.30;30.30;;;;;;4945540;28;20062;-52
2024/01/22 10:47:05;;;;;;;1.35;0.38;;;22.30;30.30;;;;;;4945476;28;20077;-52
2024/01/22 10:49:33;;;;;;;0.93;0.40;;;22.30;30.30;;;;;;4943159;28;20063;-56
2024/01/22 10:52:02;;;;;;;2.25;1.20;;;22.20;30.30;;;;;;4942176;28;20055;-51
2024/01/22 10:54:29;;;;;;;4.68;2.50;;;22.20;30.20;;;;;;4943780;29;20393;-56
2024/01/22 10:57:03;;;;;;;8.57;3.88;;;22.20;30.20;;;;;;4942009;29;20523;-54
2024/01/22 10:59:35;;;;;;;9.23;4.47;;;22.20;30.20;;;;;;4942742;28;20070;-55
2024/01/22 11:02:04;;;;;;;13.13;4.45;;;22.20;30.20;;;;;;4940247;29;20063;-57
2024/01/22 11:04:38;;;;;;;11.60;3.78;;;22.20;30.30;;;;;;4945578;28;20063;-53
2024/01/22 11:07:07;;;;;;;11.75;3.55;;;22.10;30.20;;;;;;4945100;28;20074;-57
2024/01/22 11:09:36;;;;;;;5.32;2.70;;;22.10;30.20;;;;;;4943034;29;20047;-59
2024/01/22 11:12:08;;;;;;;8.18;3.65;;;22.10;30.20;;;;;;4947571;28;20063;-57
2024/01/22 11:14:37;;;;;;;9.00;3.63;;;22.10;30.30;;;;;;4945511;29;20055;-57
2024/01/22 11:17:06;;;;;;;9.70;3.65;;;22.00;30.30;;;;;;4947081;28;20055;-58
2024/01/22 11:19:34;;;;;;;5.68;2.75;;;22.00;30.30;;;;;;4947412;28;20054;-57
2024/01/22 11:22:07;;;;;;;6.10;2.75;;;22.00;30.30;;;;;;4942094;28;20416;-56
2024/01/22 11:24:36;;;;;;;5.43;2.63;;;22.00;30.30;;;;;;4944944;28;20059;-53
2024/01/22 11:27:05;;;;;;;9.88;3.75;;;22.00;30.40;;;;;;4946668;28;20051;-52
2024/01/22 11:29:34;;;;;;;10.50;4.18;;;21.90;30.40;;;;;;4944518;29;20044;-58
2024/01/22 11:32:27;;;;;;;11.07;3.75;;;21.90;30.40;;;;;;4944297;28;20055;-55
2024/01/22 11:34:58;;;;;;;6.30;2.80;;;21.80;30.40;;;;;;4945243;29;20393;-59
2024/01/22 11:37:36;;;;;;;9.90;3.50;;;21.80;30.40;;;;;;4942393;28;20308;-54
2024/01/22 11:40:06;;;;;;;8.65;3.88;;;21.80;30.40;;;;;;4942532;28;20074;-59
2024/01/22 11:42:34;;;;;;;13.77;3.90;;;21.80;30.50;;;;;;4942894;28;20048;-58
2024/01/22 11:45:12;;;;;;;6.50;3.05;;;21.80;30.50;;;;;;4947846;29;20044;-57
2024/01/22 11:47:41;;;;;;;8.95;3.10;;;21.90;30.60;;;;;;4943045;28;20059;-57
2024/01/22 11:50:10;;;;;;;9.98;3.30;;;21.90;30.50;;;;;;4944864;28;20047;-56
2024/01/22 11:52:38;;;;;;;6.63;3.05;;;22.00;30.60;;;;;;4944483;28;20047;-58
2024/01/22 11:55:07;;;;;;;6.75;3.15;;;22.00;30.50;;;;;;4945555;28;20063;-57
2024/01/22 11:57:36;;;;;;;5.60;2.40;;;22.10;30.50;;;;;;4945212;29;20059;-49
2024/01/22 12:00:06;;;;;;;6.32;2.50;;;22.10;30.50;;;;;;4945385;28;20043;-55
2024/01/22 12:02:34;;;;;;;3.70;1.90;;;22.10;30.40;;;;;;4941382;28;20063;-54
2024/01/22 12:05:09;;;;;;;3.95;1.80;;;22.20;30.40;;;;;;4946470;28;20059;-54
2024/01/22 12:07:41;;;;;;;3.58;2.10;;;22.20;30.40;;;;;;4942173;28;20055;-57
2024/01/22 12:10:20;;;;;;;3.58;2.10;;;22.20;30.40;;;;;;4942036;28;20488;-57
2024/01/22 12:12:51;;;;;;;2.70;1.70;;;22.20;30.30;;;;;;4945915;28;20055;-58
2024/01/22 12:15:18;;;;;;;2.53;1.38;;;22.20;30.40;;;;;;4950884;28;20062;-57
2024/01/22 12:17:46;;;;;;;4.35;1.65;;;22.20;30.30;;;;;;4946863;28;20054;-56
2024/01/22 12:20:15;;;;;;;2.20;1.50;;;22.20;30.30;;;;;;4947287;28;20069;-58
2024/01/22 12:22:42;;;;;;;2.63;1.23;;;22.10;30.30;;;;;;4947713;29;20066;-57
2024/01/22 12:25:12;;;;;;;2.55;1.30;;;22.10;30.30;;;;;;4950246;28;20055;-60
2024/01/22 12:27:39;;;;;;;2.42;1.13;;;22.10;30.30;;;;;;4949739;28;20047;-57
2024/01/22 12:30:09;;;;;;;6.45;1.40;;;22.10;30.40;;;;;;4950422;28;20066;-56
2024/01/22 12:32:37;;;;;;;3.95;1.30;;;22.10;30.80;;;;;;4943774;28;20051;-59
2024/01/22 12:35:06;;;;;;;3.92;1.10;;;22.00;30.80;;;;;;4948899;28;20059;-54
2024/01/22 12:37:35;;;;;;;2.45;0.90;;;22.00;30.70;;;;;;4947908;28;20051;-56
2024/01/22 12:40:17;;;;;;;2.53;1.15;;;22.00;30.70;;;;;;4952253;28;21521;-57
2024/01/22 12:42:47;;;;;;;5.43;1.17;;;22.00;30.70;;;;;;4949427;28;20055;-57
2024/01/22 12:45:15;;;;;;;1.30;1.00;;;22.00;30.70;;;;;;4952390;28;20055;-58
2024/01/22 12:47:43;;;;;;;6.80;0.90;;;21.90;30.70;;;;;;4947759;28;20070;-59
2024/01/22 12:50:11;;;;;;;2.25;0.95;;;21.90;30.70;;;;;;4947049;28;20067;-57